Time;durP1;ratioP1;P1;durP2;ratioP2;P2;SDS_P1;SDS_P2;PMS_P1;PMS_P2;Temp;Humidity;BMP_temperature;BMP_pressure;BME280_temperature;BME280_humidity;BME280_pressure;Samples;Min_cycle;Max_cycle;Signal;HPM_P1;HPM_P2
2021/05/26 00:02:23;;;;;;;4.82;1.65;;;10.00;99.90;;;;;;5058659;28;20036;-91
2021/05/26 00:04:52;;;;;;;2.35;1.20;;;10.10;99.90;;;;;;5077578;28;20080;-92
2021/05/26 00:07:26;;;;;;;6.00;1.60;;;10.10;99.90;;;;;;5073053;28;20552;-91
2021/05/26 00:09:53;;;;;;;3.95;1.40;;;10.10;99.90;;;;;;5055919;28;20182;-91
2021/05/26 00:12:45;;;;;;;2.20;1.10;;;10.00;99.90;;;;;;5074419;28;20086;-89
2021/05/26 00:15:14;;;;;;;4.15;1.42;;;10.00;99.90;;;;;;5062074;28;20037;-92
2021/05/26 00:17:41;;;;;;;5.35;1.10;;;10.00;99.90;;;;;;5074517;28;20140;-91
2021/05/26 00:20:22;;;;;;;4.32;1.30;;;10.00;99.90;;;;;;5076649;28;20465;-92
2021/05/26 00:23:33;;;;;;;4.32;1.13;;;10.10;99.90;;;;;;5071647;28;20099;-92
2021/05/26 00:26:27;;;;;;;3.97;1.20;;;10.10;99.90;;;;;;5071547;28;20056;-91
2021/05/26 00:29:01;;;;;;;5.50;1.20;;;10.10;99.90;;;;;;5065756;28;20112;-92
2021/05/26 00:31:38;;;;;;;3.88;1.15;;;10.10;99.90;;;;;;5079722;28;20052;-91
2021/05/26 00:34:11;;;;;;;;;;;10.10;99.90;;;;;;5080855;28;20040;-93
2021/05/26 00:36:59;;;;;;;3.97;1.10;;;10.10;99.90;;;;;;5054822;28;20248;-92
2021/05/26 00:39:48;;;;;;;2.42;1.00;;;10.00;99.90;;;;;;5017255;28;20063;-93
2021/05/26 00:42:33;;;;;;;1.73;1.00;;;10.00;99.90;;;;;;5019356;28;20046;-94
2021/05/26 00:45:21;;;;;;;1.23;0.80;;;10.00;99.90;;;;;;5001908;28;20042;-92
2021/05/26 00:48:03;;;;;;;3.72;1.27;;;10.00;99.90;;;;;;5013089;28;20050;-90
2021/05/26 00:50:41;;;;;;;3.13;1.20;;;9.90;99.90;;;;;;5020236;28;20065;-93
2021/05/26 00:53:21;;;;;;;1.92;1.20;;;9.90;99.90;;;;;;5015054;28;20446;-93
2021/05/26 00:56:16;;;;;;;4.32;1.25;;;10.00;99.90;;;;;;5013448;28;20162;-94
2021/05/26 00:59:04;;;;;;;2.20;1.38;;;10.00;99.90;;;;;;5014271;28;20084;-92
2021/05/26 01:01:38;;;;;;;5.20;1.75;;;10.00;99.90;;;;;;5013477;28;20053;-91
2021/05/26 01:04:05;;;;;;;2.42;1.20;;;10.00;99.90;;;;;;5013704;28;20053;-92
2021/05/26 01:06:37;;;;;;;4.57;1.75;;;9.80;99.90;;;;;;5015506;28;20131;-91
2021/05/26 01:09:07;;;;;;;3.42;1.30;;;9.50;99.90;;;;;;5014757;28;20081;-89
2021/05/26 01:11:36;;;;;;;5.80;1.70;;;9.30;99.90;;;;;;5065920;28;20135;-89
2021/05/26 01:14:06;;;;;;;4.05;1.50;;;9.10;99.90;;;;;;5072002;28;20059;-89
2021/05/26 01:16:36;;;;;;;7.60;1.85;;;8.90;99.90;;;;;;5071925;28;20076;-92
2021/05/26 01:19:03;;;;;;;4.85;1.58;;;8.70;99.90;;;;;;5069907;28;20562;-91
2021/05/26 01:21:31;;;;;;;8.65;1.80;;;8.60;99.90;;;;;;5060902;28;20378;-91
2021/05/26 01:24:00;;;;;;;3.25;1.60;;;8.50;99.90;;;;;;5072374;28;20052;-92
2021/05/26 01:26:37;;;;;;;4.05;1.42;;;8.40;99.90;;;;;;5062121;28;20044;-91
2021/05/26 01:29:04;;;;;;;;;;;8.40;99.90;;;;;;5072295;28;20048;-91
2021/05/26 01:31:32;;;;;;;4.05;1.70;;;8.40;99.90;;;;;;5064094;28;19920;-90
2021/05/26 01:34:06;;;;;;;2.95;1.25;;;8.30;99.90;;;;;;5064511;28;20125;-91
2021/05/26 01:36:35;;;;;;;3.97;1.50;;;8.30;99.90;;;;;;5074047;28;20052;-91
2021/05/26 01:39:05;;;;;;;7.28;1.70;;;8.20;99.90;;;;;;5073828;28;20094;-91
2021/05/26 01:41:32;;;;;;;5.97;2.30;;;8.20;99.90;;;;;;5051031;28;20072;-90
2021/05/26 01:43:59;;;;;;;6.10;1.85;;;8.10;99.90;;;;;;5042011;28;20101;-92
2021/05/26 01:46:27;;;;;;;7.82;2.30;;;8.10;99.90;;;;;;5065970;28;20052;-91
2021/05/26 01:48:54;;;;;;;2.22;1.45;;;8.10;99.90;;;;;;5063613;28;20451;-90
2021/05/26 01:51:22;;;;;;;5.43;1.80;;;8.00;99.90;;;;;;5057047;28;20081;-93
2021/05/26 01:53:52;;;;;;;4.13;1.75;;;8.00;99.90;;;;;;5066723;28;20476;-90
2021/05/26 01:56:31;;;;;;;5.65;1.75;;;8.00;99.90;;;;;;5076825;28;20102;-92
2021/05/26 01:59:03;;;;;;;3.55;1.70;;;8.00;99.90;;;;;;5076013;28;20516;-94
2021/05/26 02:01:36;;;;;;;5.13;1.98;;;8.00;99.90;;;;;;5061996;28;20044;-93
2021/05/26 02:04:16;;;;;;;4.88;1.70;;;8.00;99.90;;;;;;5068996;28;20060;-94
2021/05/26 02:06:57;;;;;;;3.13;1.50;;;8.00;99.90;;;;;;5059090;28;20382;-91
2021/05/26 02:09:31;;;;;;;5.57;1.45;;;8.00;99.90;;;;;;5064658;28;20100;-91
2021/05/26 02:12:23;;;;;;;6.65;1.83;;;8.00;99.90;;;;;;5070524;28;20105;-91
2021/05/26 02:14:55;;;;;;;4.82;1.50;;;8.00;99.90;;;;;;5060530;28;20045;-93
2021/05/26 02:17:23;;;;;;;4.60;2.10;;;8.00;99.90;;;;;;5075255;28;20048;-93
2021/05/26 02:19:57;;;;;;;6.43;2.00;;;8.00;99.90;;;;;;5069820;28;20064;-92
2021/05/26 02:22:25;;;;;;;2.97;1.73;;;8.00;99.90;;;;;;5067944;28;20049;-92
2021/05/26 02:25:03;;;;;;;3.28;1.50;;;8.10;99.90;;;;;;5066427;28;20068;-94
2021/05/26 02:27:41;;;;;;;3.83;1.83;;;8.00;99.90;;;;;;5063337;28;20044;-90
2021/05/26 02:30:09;;;;;;;5.93;1.88;;;8.00;99.90;;;;;;5070607;28;20037;-92
2021/05/26 02:32:37;;;;;;;2.95;1.63;;;8.00;99.90;;;;;;5067449;28;20411;-92
2021/05/26 02:35:06;;;;;;;5.18;1.95;;;8.00;99.90;;;;;;5074049;28;20061;-89
2021/05/26 02:37:33;;;;;;;6.88;1.83;;;8.00;99.90;;;;;;5062107;28;20037;-93
2021/05/26 02:40:06;;;;;;;6.30;2.15;;;8.00;99.90;;;;;;5086685;28;20045;-90
2021/05/26 02:42:45;;;;;;;7.43;1.80;;;8.00;99.90;;;;;;5072354;28;20037;-91
2021/05/26 02:45:15;;;;;;;5.10;1.92;;;7.90;99.90;;;;;;5072271;28;20044;-90
2021/05/26 02:47:42;;;;;;;3.58;1.70;;;8.00;99.90;;;;;;5068565;28;20138;-92
2021/05/26 02:50:16;;;;;;;8.30;2.25;;;8.00;99.90;;;;;;5078253;28;20434;-91
2021/05/26 02:52:47;;;;;;;7.22;2.00;;;8.00;99.90;;;;;;5067415;28;20045;-92
2021/05/26 02:55:15;;;;;;;5.68;2.65;;;8.00;99.90;;;;;;5080599;28;20045;-92
2021/05/26 02:57:58;;;;;;;6.80;2.00;;;8.00;99.90;;;;;;5070831;28;20723;-91
2021/05/26 03:01:11;;;;;;;7.28;2.13;;;8.00;99.90;;;;;;5015881;28;20115;-91
2021/05/26 03:04:01;;;;;;;9.07;2.15;;;8.00;99.90;;;;;;5009332;28;20145;-93
2021/05/26 03:06:47;;;;;;;12.18;2.28;;;8.00;99.90;;;;;;5008635;28;20137;-94
2021/05/26 03:09:16;;;;;;;8.65;2.20;;;8.00;99.90;;;;;;5018110;28;20478;-92
2021/05/26 03:11:43;;;;;;;4.85;1.85;;;8.00;99.90;;;;;;5012316;28;20071;-92
2021/05/26 03:14:11;;;;;;;8.48;1.90;;;8.00;99.90;;;;;;5012155;28;20061;-92
2021/05/26 03:16:48;;;;;;;7.80;1.65;;;8.00;99.90;;;;;;5016587;28;20052;-89
2021/05/26 03:19:25;;;;;;;12.73;2.10;;;7.90;99.90;;;;;;5004865;28;20134;-89
2021/05/26 03:21:57;;;;;;;9.45;2.15;;;8.00;99.90;;;;;;5017820;28;20049;-94
2021/05/26 03:24:50;;;;;;;5.45;1.92;;;8.00;99.90;;;;;;5016153;28;20544;-90
2021/05/26 03:27:20;;;;;;;5.60;2.28;;;7.90;99.90;;;;;;5016720;28;20046;-94
2021/05/26 03:30:04;;;;;;;9.35;2.90;;;7.90;99.90;;;;;;4991678;28;20073;-90
2021/05/26 03:32:31;;;;;;;5.90;2.33;;;7.90;99.90;;;;;;5065577;28;20048;-93
2021/05/26 03:35:13;;;;;;;7.88;2.53;;;7.90;99.90;;;;;;5078561;28;20056;-92
2021/05/26 03:37:44;;;;;;;4.97;2.38;;;7.90;99.90;;;;;;5076998;28;20129;-91
2021/05/26 03:40:14;;;;;;;9.57;2.50;;;7.90;99.90;;;;;;5059899;28;20040;-90
2021/05/26 03:43:46;;;;;;;8.77;2.30;;;7.90;99.90;;;;;;5080480;28;20123;-93
2021/05/26 03:46:22;;;;;;;9.35;2.30;;;7.90;99.90;;;;;;5075447;28;20052;-92
2021/05/26 03:48:49;;;;;;;5.95;2.30;;;7.90;99.90;;;;;;5067635;28;20056;-89
2021/05/26 03:51:39;;;;;;;6.13;2.28;;;7.90;99.90;;;;;;5056218;28;20102;-93
2021/05/26 03:54:06;;;;;;;7.38;2.53;;;7.90;99.90;;;;;;5046593;28;20072;-91
2021/05/26 03:56:33;;;;;;;7.13;2.38;;;7.90;99.90;;;;;;5065460;28;20056;-89
2021/05/26 03:59:03;;;;;;;6.30;2.15;;;8.00;99.90;;;;;;5072504;28;20094;-91
2021/05/26 04:01:56;;;;;;;5.90;2.25;;;8.00;99.90;;;;;;5075155;28;20060;-92
2021/05/26 04:04:39;;;;;;;3.55;2.03;;;8.00;99.90;;;;;;5071578;28;20052;-91
2021/05/26 04:07:09;;;;;;;5.95;1.85;;;8.10;99.90;;;;;;5057624;28;20113;-91
2021/05/26 04:09:45;;;;;;;7.32;2.15;;;8.10;99.90;;;;;;5086439;28;20044;-90
2021/05/26 04:12:28;;;;;;;7.88;2.78;;;8.20;99.90;;;;;;5041284;28;20060;-90
2021/05/26 04:14:55;;;;;;;5.05;2.13;;;8.10;99.90;;;;;;5076053;28;20075;-91
2021/05/26 04:17:23;;;;;;;7.78;1.90;;;8.10;99.90;;;;;;5070795;28;20513;-91
2021/05/26 04:20:03;;;;;;;7.03;2.30;;;8.00;99.90;;;;;;5041493;28;20381;-92
2021/05/26 04:22:33;;;;;;;3.78;2.10;;;8.00;99.90;;;;;;5053933;28;20049;-92
2021/05/26 04:25:04;;;;;;;5.28;2.47;;;7.90;99.90;;;;;;5071077;28;20092;-90
2021/05/26 04:27:31;;;;;;;7.20;2.20;;;7.90;99.90;;;;;;5062015;28;20052;-92
2021/05/26 04:30:00;;;;;;;8.60;2.72;;;7.90;99.90;;;;;;5058035;28;20044;-88
2021/05/26 04:32:28;;;;;;;6.32;2.72;;;7.80;99.90;;;;;;5062801;28;20190;-90
2021/05/26 04:34:54;;;;;;;5.60;2.15;;;7.80;99.90;;;;;;5071145;28;20052;-88
2021/05/26 04:37:21;;;;;;;4.88;1.95;;;7.80;99.90;;;;;;5045490;28;20103;-89
2021/05/26 04:39:48;;;;;;;6.00;2.60;;;7.80;99.90;;;;;;5036923;28;20421;-92
2021/05/26 04:42:15;;;;;;;7.38;2.55;;;7.80;99.90;;;;;;5046927;28;20123;-91
2021/05/26 04:45:04;;;;;;;6.25;2.25;;;7.80;99.90;;;;;;5068264;28;20576;-86
2021/05/26 04:51:53;;;;;;;10.25;2.28;;;7.80;99.90;;;;;;5021792;28;20092;-88
2021/05/26 05:02:39;;;;;;;5.78;2.45;;;7.70;99.90;;;;;;4935298;29;20063;-87
2021/05/26 05:08:54;;;;;;;8.68;2.50;;;7.70;99.90;;;;;;5040513;28;20041;-90
2021/05/26 05:11:23;;;;;;;8.30;3.25;;;7.70;99.90;;;;;;5040588;28;20041;-87
2021/05/26 05:13:51;;;;;;;4.32;2.17;;;7.70;99.90;;;;;;5049675;28;20052;-88
2021/05/26 05:16:20;;;;;;;10.30;2.40;;;7.70;99.90;;;;;;5044241;28;20080;-88
2021/05/26 05:18:49;;;;;;;4.70;2.95;;;7.70;99.90;;;;;;5048816;28;20397;-89
2021/05/26 05:21:15;;;;;;;7.80;2.55;;;7.60;99.90;;;;;;5048699;28;20068;-87
2021/05/26 05:23:45;;;;;;;4.80;2.40;;;7.60;99.90;;;;;;5044415;28;20115;-87
2021/05/26 05:26:12;;;;;;;8.75;3.08;;;7.70;99.90;;;;;;5040714;28;20072;-91
2021/05/26 05:28:39;;;;;;;9.07;3.20;;;7.70;99.90;;;;;;5051003;28;20045;-91
2021/05/26 05:31:09;;;;;;;5.93;3.25;;;7.70;99.90;;;;;;5049068;28;20128;-92
2021/05/26 05:33:36;;;;;;;6.53;3.03;;;7.70;99.90;;;;;;5051254;28;20057;-91
2021/05/26 05:36:03;;;;;;;8.35;2.80;;;7.70;99.90;;;;;;5050766;28;20108;-92
2021/05/26 05:38:35;;;;;;;11.70;3.00;;;7.70;99.90;;;;;;5044675;28;20080;-92
2021/05/26 05:41:05;;;;;;;12.85;3.30;;;7.70;99.90;;;;;;5051994;28;20106;-90
2021/05/26 05:43:32;;;;;;;7.03;3.03;;;7.70;99.90;;;;;;5045945;28;20076;-94
2021/05/26 05:46:01;;;;;;;12.57;2.97;;;7.70;99.90;;;;;;5048919;28;20068;-93
2021/05/26 05:48:39;;;;;;;6.55;3.30;;;7.70;99.90;;;;;;5047013;28;20377;-92
2021/05/26 05:51:11;;;;;;;7.95;2.95;;;7.70;99.90;;;;;;5040615;28;20044;-94
2021/05/26 05:53:41;;;;;;;10.50;3.97;;;7.70;99.90;;;;;;5053782;28;20053;-91
2021/05/26 05:56:08;;;;;;;11.32;3.00;;;7.70;99.90;;;;;;5050680;28;20045;-91
2021/05/26 05:58:36;;;;;;;8.30;2.88;;;7.80;99.90;;;;;;5062725;28;20074;-90
2021/05/26 06:01:05;;;;;;;8.65;2.58;;;7.80;99.90;;;;;;5065136;28;20111;-89
2021/05/26 06:03:35;;;;;;;11.60;2.95;;;7.80;99.90;;;;;;5080445;28;20036;-92
2021/05/26 06:06:05;;;;;;;6.30;2.83;;;7.90;99.90;;;;;;5093550;28;20048;-92
2021/05/26 06:08:32;;;;;;;6.82;2.55;;;7.90;99.90;;;;;;5089060;28;20120;-90
2021/05/26 06:11:14;;;;;;;10.73;3.05;;;8.00;99.90;;;;;;5093561;28;20096;-88
2021/05/26 06:13:45;;;;;;;12.43;2.60;;;8.10;99.90;;;;;;5073854;28;20055;-90
2021/05/26 06:16:12;;;;;;;6.53;3.30;;;8.00;99.90;;;;;;5064960;28;20048;-91
2021/05/26 06:18:59;;;;;;;8.93;3.33;;;8.10;99.90;;;;;;5063315;28;20095;-92
2021/05/26 06:25:02;;;;;;;7.07;2.60;;;8.20;99.90;;;;;;4964599;28;20065;-93
2021/05/26 06:27:36;;;;;;;10.60;2.50;;;8.30;99.90;;;;;;5010975;28;20057;-91
2021/05/26 06:30:08;;;;;;;7.15;2.50;;;8.50;99.90;;;;;;5046991;28;20132;-93
2021/05/26 06:32:41;;;;;;;8.75;2.72;;;8.60;99.90;;;;;;5060276;28;20397;-91
2021/05/26 06:35:11;;;;;;;6.63;2.30;;;8.60;99.90;;;;;;5064257;28;20056;-92
2021/05/26 06:38:18;;;;;;;5.75;2.55;;;8.60;99.90;;;;;;5053541;28;20052;-94
2021/05/26 06:44:59;;;;;;;9.55;2.75;;;8.60;99.90;;;;;;5072614;28;20055;-91
2021/05/26 06:47:36;;;;;;;9.02;2.92;;;8.60;99.90;;;;;;5073123;28;20113;-93
2021/05/26 06:54:23;;;;;;;;;;;;;;;;;;;;;
2021/05/26 06:58:08;;;;;;;12.55;2.97;;;8.70;99.90;;;;;;5011859;28;20047;-93
2021/05/26 07:01:40;;;;;;;;;;;;;;;;;;;;;
2021/05/26 07:04:34;;;;;;;;;;;8.90;99.90;;;;;;5078141;28;20051;-93
2021/05/26 07:07:28;;;;;;;10.60;2.63;;;8.90;99.90;;;;;;5060506;28;19920;-89
2021/05/26 07:10:04;;;;;;;7.72;3.05;;;9.00;99.90;;;;;;5061542;28;20479;-91
2021/05/26 07:13:05;;;;;;;10.77;3.22;;;9.00;99.90;;;;;;5068121;28;20059;-91
2021/05/26 07:15:38;;;;;;;10.68;3.35;;;9.10;99.90;;;;;;5059492;28;20147;-94
2021/05/26 07:18:19;;;;;;;8.15;3.00;;;9.10;99.90;;;;;;4990640;28;20058;-92
2021/05/26 07:20:54;;;;;;;7.13;2.67;;;9.10;99.90;;;;;;5000279;28;20064;-92
2021/05/26 07:23:49;;;;;;;14.10;3.63;;;9.20;99.90;;;;;;5015206;28;20057;-92
2021/05/26 07:26:33;;;;;;;13.57;3.13;;;9.30;99.90;;;;;;5014665;28;20050;-92
2021/05/26 07:29:12;;;;;;;8.55;2.65;;;9.30;99.90;;;;;;4999381;28;20205;-92
2021/05/26 07:31:48;;;;;;;7.63;2.70;;;9.30;99.90;;;;;;5015123;28;20129;-94
2021/05/26 07:34:20;;;;;;;7.93;2.58;;;9.30;99.90;;;;;;5015468;28;20072;-92
2021/05/26 07:36:57;;;;;;;14.02;2.80;;;9.30;99.90;;;;;;5002068;28;20045;-91
2021/05/26 07:39:34;;;;;;;13.15;2.97;;;9.20;99.90;;;;;;5011693;28;20353;-92
2021/05/26 07:42:27;;;;;;;13.35;2.90;;;9.20;99.90;;;;;;5007552;28;20054;-92
2021/05/26 07:44:54;;;;;;;17.30;3.17;;;9.10;99.90;;;;;;4997523;28;20048;-91
2021/05/26 07:47:23;;;;;;;8.55;2.90;;;9.10;99.90;;;;;;5012152;28;20049;-92
2021/05/26 07:49:55;;;;;;;11.57;3.22;;;9.20;99.90;;;;;;5013720;28;20065;-91
2021/05/26 07:52:32;;;;;;;;;;;;;;;;;;;;;
2021/05/26 07:59:45;;;;;;;9.32;2.65;;;9.20;99.90;;;;;;4993304;28;20057;-94
2021/05/26 08:03:12;;;;;;;11.00;2.75;;;9.10;99.90;;;;;;4988183;28;20054;-93
2021/05/26 08:09:12;;;;;;;10.32;3.00;;;9.10;99.90;;;;;;4928946;29;20071;-92
2021/05/26 08:11:45;;;;;;;10.35;2.70;;;9.00;99.90;;;;;;4949037;29;20126;-92
2021/05/26 08:15:06;;;;;;;5.22;2.80;;;9.00;99.90;;;;;;4942537;29;20134;-93
2021/05/26 08:17:39;;;;;;;10.30;3.22;;;9.00;99.90;;;;;;4936579;29;20473;-92
2021/05/26 08:20:18;;;;;;;8.00;2.83;;;8.90;99.90;;;;;;4935469;29;20146;-90
2021/05/26 08:22:56;;;;;;;10.70;3.28;;;8.90;99.90;;;;;;4950150;28;20451;-92
2021/05/26 08:25:25;;;;;;;8.23;2.78;;;8.80;99.90;;;;;;4990793;28;20042;-93
2021/05/26 08:27:53;;;;;;;12.15;3.25;;;8.80;99.90;;;;;;4990756;28;20475;-90
2021/05/26 08:30:20;;;;;;;9.60;2.95;;;8.80;99.90;;;;;;4989777;28;20051;-91
2021/05/26 08:32:49;;;;;;;8.02;3.10;;;8.80;99.90;;;;;;5034462;28;20049;-93
2021/05/26 08:35:19;;;;;;;11.63;3.33;;;8.70;99.90;;;;;;5073980;28;20219;-92
2021/05/26 08:38:37;;;;;;;12.45;3.13;;;8.70;99.90;;;;;;5035645;28;20052;-90
2021/05/26 08:42:51;;;;;;;;;;;;;;;;;;;;;
2021/05/26 08:45:30;;;;;;;5.60;2.63;;;8.80;99.90;;;;;;4938484;28;20067;-94
2021/05/26 08:48:18;;;;;;;;;;;;;;;;;;;;;
2021/05/26 08:51:24;;;;;;;;;;;;;;;;;;;;;
2021/05/26 08:54:05;;;;;;;9.75;3.17;;;8.80;99.90;;;;;;4944392;28;20091;-89
2021/05/26 09:00:22;;;;;;;;;;;;;;;;;;;;;
2021/05/26 09:03:09;;;;;;;7.45;2.67;;;9.10;99.90;;;;;;5008887;28;20042;-91
2021/05/26 09:06:11;;;;;;;;;;;;;;;;;;;;;
2021/05/26 09:09:18;;;;;;;;;;;;;;;;;;;;;
2021/05/26 09:11:51;;;;;;;12.48;3.45;;;9.40;99.90;;;;;;4993393;28;20106;-91
2021/05/26 09:19:09;;;;;;;;;;;;;;;;;;;;;
2021/05/26 09:22:22;;;;;;;;;;;;;;;;;;;;;
2021/05/26 09:24:55;;;;;;;6.45;2.47;;;9.30;99.90;;;;;;4948821;29;20093;-92
2021/05/26 09:27:46;;;;;;;9.15;2.72;;;9.30;99.90;;;;;;4957623;29;20047;-90
2021/05/26 09:30:37;;;;;;;11.57;2.70;;;9.40;99.90;;;;;;4957018;28;20067;-91
2021/05/26 09:33:44;;;;;;;5.55;1.88;;;9.40;99.90;;;;;;4974601;28;20045;-92
2021/05/26 09:36:12;;;;;;;7.72;2.83;;;9.50;99.90;;;;;;5022793;28;20041;-93
2021/05/26 09:39:51;;;;;;;;;;;;;;;;;;;;;
2021/05/26 09:42:46;;;;;;;5.18;1.77;;;9.70;99.90;;;;;;4951828;28;20051;-89
2021/05/26 09:45:17;;;;;;;8.25;2.10;;;9.80;99.90;;;;;;4956533;29;20059;-92
2021/05/26 09:47:50;;;;;;;3.95;1.77;;;10.00;99.90;;;;;;4958757;28;20051;-93
2021/05/26 09:50:39;;;;;;;4.35;1.80;;;10.00;99.90;;;;;;4960074;28;20115;-91
2021/05/26 09:53:23;;;;;;;2.67;1.50;;;9.90;99.90;;;;;;5044757;28;20044;-93
2021/05/26 09:56:00;;;;;;;3.47;1.42;;;9.80;99.90;;;;;;5060255;28;20124;-95
2021/05/26 09:58:29;;;;;;;2.13;1.50;;;9.90;99.90;;;;;;5058105;28;20139;-90
2021/05/26 10:01:10;;;;;;;2.65;1.27;;;9.80;99.90;;;;;;5057248;28;20067;-90
2021/05/26 10:04:00;;;;;;;4.30;1.65;;;9.80;99.90;;;;;;5046484;28;20081;-91
2021/05/26 10:07:13;;;;;;;4.22;1.80;;;9.80;99.90;;;;;;5038813;28;20438;-91
2021/05/26 10:10:05;;;;;;;2.25;1.40;;;9.80;99.90;;;;;;5033603;28;20045;-94
2021/05/26 10:12:38;;;;;;;2.85;1.50;;;9.80;99.90;;;;;;5024614;28;20068;-90
2021/05/26 10:15:52;;;;;;;2.97;2.17;;;9.80;99.90;;;;;;5034610;28;20050;-92
2021/05/26 10:19:20;;;;;;;;;;;;;;;;;;;;;
2021/05/26 10:26:54;;;;;;;;;;;;;;;;;;;;;
2021/05/26 10:39:00;;;;;;;5.72;1.63;;;10.20;99.90;;;;;;5031131;28;20046;-92
2021/05/26 10:42:25;;;;;;;;;;;;;;;;;;;;;
2021/05/26 10:45:19;;;;;;;5.82;1.88;;;10.10;99.90;;;;;;5015501;28;20049;-92
2021/05/26 10:48:18;;;;;;;3.75;1.67;;;10.10;99.90;;;;;;5025669;28;20432;-93
2021/05/26 10:51:13;;;;;;;;;;;;;;;;;;;;;
2021/05/26 10:54:54;;;;;;;3.72;1.83;;;10.40;99.90;;;;;;5013293;28;20133;-94
2021/05/26 11:06:31;;;;;;;5.85;1.83;;;10.30;99.90;;;;;;4885664;29;20080;-94
2021/05/26 11:09:37;;;;;;;;;;;;;;;;;;;;;
2021/05/26 11:12:24;;;;;;;6.15;2.50;;;10.30;99.90;;;;;;4943065;29;20148;-93
2021/05/26 11:15:18;;;;;;;4.20;1.95;;;10.50;99.90;;;;;;4971196;29;20058;-93
2021/05/26 11:22:41;;;;;;;;;;;;;;;;;;;;;
2021/05/26 11:26:04;;;;;;;3.25;1.65;;;10.80;99.90;;;;;;4805313;29;20474;-93
2021/05/26 11:28:43;;;;;;;;;;;;;;;;;;;;;
2021/05/26 11:31:18;;;;;;;3.80;1.70;;;10.90;99.90;;;;;;4872947;29;20061;-92
2021/05/26 11:33:57;;;;;;;3.60;1.90;;;11.10;99.90;;;;;;4864440;29;20049;-89
2021/05/26 11:36:47;;;;;;;2.88;1.50;;;11.10;99.90;;;;;;4862933;29;20511;-92
2021/05/26 11:39:30;;;;;;;4.20;1.75;;;11.00;99.90;;;;;;4859184;29;20121;-89
2021/05/26 11:42:09;;;;;;;5.90;2.10;;;11.00;99.90;;;;;;4853977;29;20187;-90
2021/05/26 11:45:08;;;;;;;8.20;1.77;;;11.10;99.90;;;;;;4952118;29;20208;-91
2021/05/26 11:47:38;;;;;;;3.63;1.80;;;11.10;99.90;;;;;;4949747;28;20087;-92
2021/05/26 11:50:15;;;;;;;4.03;1.40;;;11.20;99.90;;;;;;5004250;28;20493;-91
2021/05/26 11:53:12;;;;;;;4.80;1.50;;;11.20;99.90;;;;;;5014052;28;20097;-89
2021/05/26 11:55:46;;;;;;;3.03;1.40;;;11.10;99.90;;;;;;4992924;28;20046;-92
2021/05/26 11:58:39;;;;;;;7.70;1.73;;;11.10;99.90;;;;;;5015141;28;20046;-94
2021/05/26 12:01:13;;;;;;;2.65;1.52;;;11.20;99.90;;;;;;4997191;28;20060;-91
2021/05/26 12:03:40;;;;;;;3.38;1.60;;;11.40;99.90;;;;;;5010298;28;20109;-94
2021/05/26 12:06:19;;;;;;;2.63;1.58;;;11.50;99.90;;;;;;5005393;28;20042;-90
2021/05/26 12:08:47;;;;;;;5.60;1.83;;;11.70;99.90;;;;;;5025358;28;20049;-90
2021/05/26 12:11:27;;;;;;;2.38;1.30;;;11.70;99.90;;;;;;4999908;28;20379;-91
2021/05/26 12:13:57;;;;;;;2.67;1.15;;;11.60;99.90;;;;;;5015326;28;20042;-93
2021/05/26 12:16:41;;;;;;;3.33;1.30;;;11.90;99.90;;;;;;4999980;28;20038;-92
2021/05/26 12:19:55;;;;;;;;;;;;;;;;;;;;;
2021/05/26 12:23:29;;;;;;;4.32;1.65;;;12.10;99.90;;;;;;5003371;28;20093;-91
2021/05/26 12:26:59;;;;;;;;;;;;;;;;;;;;;
2021/05/26 12:29:58;;;;;;;4.70;1.58;;;12.40;99.90;;;;;;5017292;28;20046;-95
2021/05/26 12:33:37;;;;;;;3.20;1.35;;;12.30;99.90;;;;;;4946539;28;20051;-93
2021/05/26 12:36:06;;;;;;;3.55;1.70;;;12.40;99.90;;;;;;4950556;28;20406;-93
2021/05/26 12:39:05;;;;;;;3.22;1.40;;;12.50;99.90;;;;;;4962810;28;20070;-93
2021/05/26 12:42:28;;;;;;;;;;;;;;;;;;;;;
2021/05/26 12:48:45;;;;;;;3.58;1.63;;;13.20;99.90;;;;;;4952971;28;20059;-93
2021/05/26 12:51:47;;;;;;;5.05;1.50;;;12.90;99.90;;;;;;5000928;28;20070;-93
2021/05/26 13:16:23;;;;;;;3.78;1.88;;;12.00;99.90;;;;;;4878395;29;20053;-94
2021/05/26 13:19:21;;;;;;;3.78;1.13;;;11.80;99.90;;;;;;4877411;29;20073;-91
2021/05/26 13:33:31;;;;;;;3.05;1.60;;;11.70;99.90;;;;;;5198003;27;20400;-92
2021/05/26 13:36:39;;;;;;;;;;;;;;;;;;;;;
2021/05/26 13:40:37;;;;;;;;;;;;;;;;;;;;;
2021/05/26 13:43:09;;;;;;;5.05;1.88;;;12.30;99.90;;;;;;5054863;28;20576;-93
2021/05/26 13:46:20;;;;;;;3.42;1.80;;;12.30;99.90;;;;;;5035423;28;20068;-92
2021/05/26 13:48:48;;;;;;;1.88;1.30;;;12.50;99.90;;;;;;5033729;28;20142;-92
2021/05/26 13:51:25;;;;;;;1.63;1.40;;;12.50;99.90;;;;;;5170002;27;20038;-90
2021/05/26 13:53:55;;;;;;;2.38;1.52;;;12.40;99.90;;;;;;5148842;27;20042;-91
2021/05/26 13:56:26;;;;;;;2.88;1.27;;;12.60;99.90;;;;;;5166388;27;20039;-91
2021/05/26 13:58:55;;;;;;;6.53;1.40;;;12.70;99.90;;;;;;5156534;27;20052;-92
2021/05/26 14:01:31;;;;;;;3.25;1.60;;;12.50;99.90;;;;;;5168529;27;20424;-93
2021/05/26 14:04:02;;;;;;;2.70;1.70;;;12.30;99.90;;;;;;5149867;27;20084;-91
2021/05/26 14:06:34;;;;;;;6.15;1.35;;;12.30;99.90;;;;;;5163693;27;20051;-89
2021/05/26 14:09:14;;;;;;;1.40;1.30;;;12.40;99.90;;;;;;5132603;27;20039;-91
2021/05/26 14:11:47;;;;;;;2.15;1.67;;;12.20;99.90;;;;;;5170665;27;20076;-91
2021/05/26 14:14:49;;;;;;;6.57;1.60;;;12.20;99.90;;;;;;5149365;27;20426;-89
2021/05/26 14:18:01;;;;;;;3.05;1.60;;;12.20;99.90;;;;;;5170451;27;20063;-89
2021/05/26 14:21:05;;;;;;;1.95;1.50;;;12.20;99.90;;;;;;5188822;27;20031;-89
2021/05/26 14:23:48;;;;;;;2.55;1.23;;;12.20;99.90;;;;;;5154620;27;20054;-86
2021/05/26 14:26:28;;;;;;;2.88;1.92;;;12.20;99.90;;;;;;5162418;27;20084;-90
2021/05/26 14:29:04;;;;;;;3.20;1.50;;;12.50;99.90;;;;;;5165331;27;20130;-89
2021/05/26 14:31:41;;;;;;;2.35;1.33;;;12.60;99.90;;;;;;5174879;27;20387;-91
2021/05/26 14:34:10;;;;;;;4.25;1.42;;;12.60;99.90;;;;;;5168224;27;20142;-89
2021/05/26 14:36:42;;;;;;;1.98;1.33;;;12.70;99.90;;;;;;5160810;27;20061;-90
2021/05/26 14:39:18;;;;;;;1.95;1.13;;;12.90;99.90;;;;;;5134282;27;20035;-91
2021/05/26 14:42:09;;;;;;;3.88;1.52;;;12.90;99.90;;;;;;5163358;27;20099;-89
2021/05/26 14:44:51;;;;;;;2.90;1.38;;;13.00;99.90;;;;;;5152625;27;20066;-90
2021/05/26 14:47:55;;;;;;;3.22;1.20;;;13.00;99.90;;;;;;5133871;27;20328;-90
2021/05/26 14:50:36;;;;;;;2.10;0.90;;;13.10;99.90;;;;;;5134621;27;20066;-90
2021/05/26 14:53:06;;;;;;;2.15;0.90;;;13.10;99.90;;;;;;5127120;27;20050;-91
2021/05/26 14:55:35;;;;;;;1.20;1.00;;;13.40;99.90;;;;;;5149147;27;20081;-90
2021/05/26 14:58:15;;;;;;;2.17;1.20;;;13.60;99.90;;;;;;5145494;27;20047;-92
2021/05/26 15:00:54;;;;;;;2.53;1.23;;;13.70;99.90;;;;;;5157400;27;20038;-92
2021/05/26 15:03:36;;;;;;;2.85;1.30;;;13.10;99.90;;;;;;5135759;27;20050;-88
2021/05/26 15:06:04;;;;;;;2.65;1.60;;;12.70;99.90;;;;;;5148980;27;20112;-90
2021/05/26 15:08:31;;;;;;;1.92;1.30;;;12.50;99.90;;;;;;5104395;27;20121;-91
2021/05/26 15:11:00;;;;;;;3.83;1.30;;;12.40;99.90;;;;;;5146810;27;20099;-89
2021/05/26 15:13:33;;;;;;;2.55;0.95;;;12.30;99.90;;;;;;5138614;27;20038;-89
2021/05/26 15:16:03;;;;;;;1.98;1.30;;;12.20;99.90;;;;;;5123353;27;20046;-90
2021/05/26 15:18:30;;;;;;;2.10;1.10;;;12.10;99.90;;;;;;5147777;27;20536;-90
2021/05/26 15:20:57;;;;;;;4.45;1.50;;;12.00;99.90;;;;;;5123799;27;20058;-89
2021/05/26 15:23:24;;;;;;;2.97;1.40;;;12.00;99.90;;;;;;5131186;27;20767;-89
2021/05/26 15:25:52;;;;;;;2.40;1.38;;;11.90;99.90;;;;;;5129645;27;20050;-90
2021/05/26 15:28:22;;;;;;;2.78;1.08;;;11.70;99.90;;;;;;5142281;27;20077;-89
2021/05/26 15:30:51;;;;;;;2.33;1.42;;;11.70;99.90;;;;;;5133341;27;20059;-91
2021/05/26 15:33:20;;;;;;;3.47;1.20;;;11.70;99.90;;;;;;5135414;27;20043;-89
2021/05/26 15:35:53;;;;;;;1.30;1.20;;;11.60;99.90;;;;;;5132407;27;20063;-90
2021/05/26 15:38:21;;;;;;;1.23;1.00;;;11.50;99.90;;;;;;5125546;27;20059;-91
2021/05/26 15:40:51;;;;;;;2.53;1.38;;;11.40;99.90;;;;;;5129163;27;20058;-92
2021/05/26 15:43:21;;;;;;;2.53;1.60;;;11.30;99.90;;;;;;5136453;27;20436;-92
2021/05/26 15:45:48;;;;;;;6.18;1.40;;;11.40;99.90;;;;;;5125915;27;20112;-90
2021/05/26 15:48:19;;;;;;;3.63;1.70;;;11.50;99.90;;;;;;5134101;27;20035;-92
2021/05/26 15:50:48;;;;;;;1.48;1.30;;;11.50;99.90;;;;;;5130523;27;20445;-91
2021/05/26 15:53:17;;;;;;;1.95;1.33;;;11.50;99.90;;;;;;5129365;27;20047;-92
2021/05/26 15:55:47;;;;;;;2.80;1.70;;;11.60;99.90;;;;;;5126530;27;20043;-89
2021/05/26 15:58:14;;;;;;;3.50;1.40;;;11.60;99.90;;;;;;5133061;27;20039;-90
2021/05/26 16:00:42;;;;;;;2.08;1.23;;;11.70;99.90;;;;;;5124108;27;20043;-91
2021/05/26 16:03:09;;;;;;;2.22;1.20;;;11.60;99.90;;;;;;5129279;27;20047;-92
2021/05/26 16:05:36;;;;;;;2.33;1.35;;;11.60;99.90;;;;;;5130740;27;20128;-90
2021/05/26 16:08:04;;;;;;;3.72;1.23;;;11.60;99.90;;;;;;5123291;27;20151;-88
2021/05/26 16:10:31;;;;;;;1.38;1.02;;;11.50;99.90;;;;;;5133335;27;20475;-92
2021/05/26 16:12:58;;;;;;;1.80;0.98;;;11.50;99.90;;;;;;5126633;27;20050;-90
2021/05/26 16:15:28;;;;;;;3.38;1.20;;;11.60;99.90;;;;;;5133535;27;20043;-91
2021/05/26 16:17:56;;;;;;;1.40;0.90;;;11.60;99.90;;;;;;5140356;27;20039;-89
2021/05/26 16:20:25;;;;;;;8.43;1.10;;;11.60;99.90;;;;;;5134009;27;20054;-92